createdAt,value
2018-09-30T00:00:50.612Z,5.62
2018-09-30T00:01:50.660Z,5.60
2018-09-30T00:02:50.550Z,5.63
2018-09-30T00:03:50.582Z,5.60
2018-09-30T00:04:50.491Z,5.69
2018-09-30T00:05:50.496Z,5.52
2018-09-30T00:06:50.442Z,5.67
2018-09-30T00:07:50.531Z,5.51
2018-09-30T00:08:50.433Z,5.51
2018-09-30T00:09:50.436Z,5.52
2018-09-30T00:10:50.332Z,5.51
2018-09-30T00:11:50.477Z,5.49
2018-09-30T00:12:50.297Z,5.52
2018-09-30T00:13:50.355Z,5.52
2018-09-30T00:14:50.278Z,5.45
2018-09-30T00:15:50.291Z,5.40
2018-09-30T00:16:50.238Z,5.40
2018-09-30T00:17:50.273Z,5.38
2018-09-30T00:18:50.183Z,5.29
2018-09-30T00:19:50.195Z,5.30
2018-09-30T00:20:50.126Z,5.32
2018-09-30T00:21:50.118Z,5.27
2018-09-30T00:22:50.045Z,5.27
2018-09-30T00:23:50.112Z,5.24
2018-09-30T00:24:50.002Z,5.22
2018-09-30T00:25:50.025Z,5.23
2018-09-30T00:26:49.942Z,5.23
2018-09-30T00:27:49.951Z,5.26
2018-09-30T00:28:49.853Z,5.17
2018-09-30T00:29:49.925Z,5.11
2018-09-30T00:30:49.796Z,5.23
2018-09-30T00:31:49.845Z,5.14
2018-09-30T00:32:49.738Z,5.01
2018-09-30T00:33:49.747Z,5.05
2018-09-30T00:34:49.691Z,5.11
2018-09-30T00:35:49.760Z,5.06
2018-09-30T00:36:49.648Z,5.01
2018-09-30T00:37:49.668Z,4.93
2018-09-30T00:38:49.589Z,4.97
2018-09-30T00:39:49.577Z,4.99
2018-09-30T00:40:49.525Z,4.88
2018-09-30T00:41:49.591Z,4.94
2018-09-30T00:42:49.474Z,4.84
2018-09-30T00:43:49.504Z,4.86
2018-09-30T00:44:49.430Z,4.90
2018-09-30T00:45:49.415Z,4.86
2018-09-30T00:46:49.379Z,4.90
2018-09-30T00:47:49.426Z,4.86
2018-09-30T00:48:49.312Z,4.83
2018-09-30T00:49:49.337Z,4.74
2018-09-30T00:50:49.266Z,4.83
2018-09-30T00:51:49.351Z,4.71
2018-09-30T00:52:49.212Z,4.79
2018-09-30T00:53:49.258Z,4.77
2018-09-30T00:54:49.163Z,4.75
2018-09-30T00:55:49.173Z,4.71
2018-09-30T00:56:49.100Z,4.72
2018-09-30T00:57:49.183Z,4.79
2018-09-30T00:58:49.052Z,4.75
2018-09-30T00:59:49.100Z,4.79
2018-09-30T01:00:49.000Z,4.80
2018-09-30T01:01:49.005Z,4.83
2018-09-30T01:02:48.945Z,4.79
2018-09-30T01:03:49.052Z,4.80
2018-09-30T01:04:48.890Z,4.79
2018-09-30T01:05:48.933Z,4.77
2018-09-30T01:06:48.833Z,4.69
2018-09-30T01:07:48.840Z,4.75
2018-09-30T01:08:48.781Z,4.77
2018-09-30T01:09:48.873Z,4.72
2018-09-30T01:10:48.731Z,4.75
2018-09-30T01:11:48.763Z,4.74
2018-09-30T01:12:48.682Z,4.80
2018-09-30T01:13:48.671Z,4.75
2018-09-30T01:14:48.631Z,4.79
2018-09-30T01:15:48.686Z,4.72
2018-09-30T01:16:48.577Z,4.71
2018-09-30T01:17:48.595Z,4.71
2018-09-30T01:18:48.510Z,4.72
2018-09-30T01:19:48.512Z,4.68
2018-09-30T01:20:48.461Z,4.71
2018-09-30T01:21:48.522Z,4.71
2018-09-30T01:22:48.492Z,4.62
2018-09-30T01:23:48.425Z,4.61
2018-09-30T01:24:48.355Z,4.69
2018-09-30T01:25:48.337Z,4.69
2018-09-30T01:26:48.291Z,4.65
2018-09-30T01:27:48.358Z,4.68
2018-09-30T01:28:48.244Z,4.74
2018-09-30T01:29:48.257Z,4.69
2018-09-30T01:30:48.184Z,4.69
2018-09-30T01:31:48.179Z,4.69
2018-09-30T01:32:48.134Z,4.71
2018-09-30T01:33:48.191Z,4.62
2018-09-30T01:34:48.101Z,4.65
2018-09-30T01:35:48.108Z,4.68
2018-09-30T01:36:48.037Z,4.64
2018-09-30T01:37:48.112Z,4.64
2018-09-30T01:38:47.970Z,4.57
2018-09-30T01:39:48.015Z,4.59
2018-09-30T01:40:47.971Z,4.54
2018-09-30T01:41:48.051Z,4.59
2018-09-30T01:42:47.863Z,4.62
2018-09-30T01:43:47.957Z,4.62
2018-09-30T01:44:47.814Z,4.57
2018-09-30T01:45:47.848Z,4.61
2018-09-30T01:46:47.769Z,4.56
2018-09-30T01:47:47.790Z,4.53
2018-09-30T01:48:47.714Z,4.67
2018-09-30T01:49:47.783Z,4.62
2018-09-30T01:50:47.645Z,4.53
2018-09-30T01:51:47.692Z,4.59
2018-09-30T01:52:47.601Z,4.61
2018-09-30T01:53:47.613Z,4.51
2018-09-30T01:54:47.530Z,4.54
2018-09-30T01:55:47.620Z,4.61
2018-09-30T01:56:47.490Z,4.62
2018-09-30T01:57:47.530Z,4.59
2018-09-30T01:58:47.453Z,4.51
2018-09-30T01:59:47.438Z,4.53
2018-09-30T02:00:47.375Z,4.50
2018-09-30T02:01:47.458Z,4.61
2018-09-30T02:02:47.314Z,4.56
2018-09-30T02:03:47.368Z,4.47
2018-09-30T02:04:47.274Z,4.50
2018-09-30T02:05:47.273Z,4.51
2018-09-30T02:06:47.212Z,4.47
2018-09-30T02:07:47.281Z,4.51
2018-09-30T02:08:47.159Z,4.46
2018-09-30T02:09:47.194Z,4.47
2018-09-30T02:10:47.103Z,4.49
2018-09-30T02:11:47.120Z,4.35
2018-09-30T02:12:47.068Z,4.46
2018-09-30T02:13:47.143Z,4.49
2018-09-30T02:14:46.995Z,4.39
2018-09-30T02:15:47.021Z,4.39
2018-09-30T02:16:46.970Z,4.44
2018-09-30T02:17:46.980Z,4.43
2018-09-30T02:18:46.890Z,4.39
2018-09-30T02:19:46.951Z,4.43
2018-09-30T02:20:46.829Z,4.34
2018-09-30T02:21:46.863Z,4.38
2018-09-30T02:22:46.780Z,4.38
2018-09-30T02:23:46.778Z,4.47
2018-09-30T02:24:46.726Z,4.36
2018-09-30T02:25:46.780Z,4.35
2018-09-30T02:26:46.667Z,4.42
2018-09-30T02:27:46.691Z,4.31
2018-09-30T02:28:46.609Z,4.38
2018-09-30T02:29:46.608Z,4.35
2018-09-30T02:30:46.549Z,4.31
2018-09-30T02:31:46.613Z,4.36
2018-09-30T02:32:46.507Z,4.35
2018-09-30T02:33:46.523Z,4.26
2018-09-30T02:34:46.442Z,4.26
2018-09-30T02:35:46.445Z,4.31
2018-09-30T02:36:46.399Z,4.31
2018-09-30T02:37:46.447Z,4.29
2018-09-30T02:38:46.336Z,4.35
2018-09-30T02:39:46.535Z,4.16
2018-09-30T02:40:46.279Z,4.21
2018-09-30T02:41:46.268Z,4.18
2018-09-30T02:42:46.240Z,4.18
2018-09-30T02:43:46.363Z,4.29
2018-09-30T02:44:46.173Z,4.31
2018-09-30T02:45:46.202Z,4.18
2018-09-30T02:46:46.117Z,4.20
2018-09-30T02:47:46.114Z,4.31
2018-09-30T02:48:46.062Z,4.32
2018-09-30T02:49:46.114Z,4.21
2018-09-30T02:50:46.010Z,4.13
2018-09-30T02:51:46.862Z,4.21
2018-09-30T02:52:45.950Z,4.28
2018-09-30T02:53:45.939Z,4.21
2018-09-30T02:54:45.902Z,4.24
2018-09-30T02:55:45.948Z,4.07
2018-09-30T02:56:45.856Z,4.13
2018-09-30T02:57:45.859Z,4.20
2018-09-30T02:58:45.805Z,4.18
2018-09-30T02:59:45.884Z,4.13
2018-09-30T03:00:45.749Z,4.13
2018-09-30T03:01:45.781Z,4.18
2018-09-30T03:02:45.685Z,4.16
2018-09-30T03:03:45.689Z,4.18
2018-09-30T03:04:45.633Z,4.10
2018-09-30T03:05:45.704Z,4.02
2018-09-30T03:06:45.568Z,4.10
2018-09-30T03:07:45.619Z,4.11
2018-09-30T03:08:45.515Z,4.11
2018-09-30T03:09:45.549Z,4.10
2018-09-30T03:10:45.458Z,4.11
2018-09-30T03:11:45.539Z,4.06
2018-09-30T03:12:45.407Z,4.10
2018-09-30T03:13:45.462Z,4.08
2018-09-30T03:14:45.368Z,4.10
2018-09-30T03:15:45.358Z,4.08
2018-09-30T03:16:45.307Z,4.00
2018-09-30T03:17:45.374Z,4.06
2018-09-30T03:18:45.252Z,4.02
2018-09-30T03:19:45.287Z,4.02
2018-09-30T03:20:45.186Z,3.93
2018-09-30T03:21:45.162Z,4.02
2018-09-30T03:22:45.140Z,3.98
2018-09-30T03:23:45.213Z,3.92
2018-09-30T03:24:45.093Z,4.04
2018-09-30T03:25:45.121Z,3.88
2018-09-30T03:26:45.024Z,3.93
2018-09-30T03:27:45.041Z,3.78
2018-09-30T03:28:44.971Z,3.88
2018-09-30T03:29:45.045Z,3.78
2018-09-30T03:30:44.916Z,3.70
2018-09-30T03:31:44.963Z,3.72
2018-09-30T03:32:44.868Z,3.74
2018-09-30T03:33:44.865Z,3.72
2018-09-30T03:34:44.812Z,3.75
2018-09-30T03:35:44.891Z,3.67
2018-09-30T03:36:44.750Z,3.71
2018-09-30T03:37:44.791Z,3.72
2018-09-30T03:38:44.691Z,3.62
2018-09-30T03:39:45.734Z,3.72
2018-09-30T03:40:44.640Z,3.62
2018-09-30T03:41:44.715Z,3.60
2018-09-30T03:42:44.589Z,3.64
2018-09-30T03:43:44.626Z,3.57
2018-09-30T03:44:44.527Z,3.52
2018-09-30T03:45:44.535Z,3.63
2018-09-30T03:46:44.477Z,3.67
2018-09-30T03:47:44.550Z,3.64
2018-09-30T03:48:44.421Z,3.62
2018-09-30T03:49:44.456Z,3.57
2018-09-30T03:50:44.368Z,3.54
2018-09-30T03:51:44.369Z,3.50
2018-09-30T03:52:44.311Z,3.70
2018-09-30T03:53:44.381Z,3.62
2018-09-30T03:54:44.252Z,3.60
2018-09-30T03:55:44.288Z,3.60
2018-09-30T03:56:44.265Z,3.53
2018-09-30T03:57:44.203Z,3.60
2018-09-30T03:58:44.147Z,3.68
2018-09-30T03:59:44.217Z,3.64
2018-09-30T04:00:44.092Z,3.57
2018-09-30T04:01:44.136Z,3.54
2018-09-30T04:02:44.034Z,3.53
2018-09-30T04:03:44.035Z,3.53
2018-09-30T04:04:43.981Z,3.49
2018-09-30T04:05:46.001Z,3.57
2018-09-30T04:06:43.927Z,3.54
2018-09-30T04:07:43.962Z,3.45
2018-09-30T04:08:43.874Z,3.42
2018-09-30T04:09:43.949Z,3.50
2018-09-30T04:10:43.845Z,3.53
2018-09-30T04:11:43.885Z,3.45
2018-09-30T04:12:43.760Z,3.37
2018-09-30T04:13:43.804Z,3.45
2018-09-30T04:14:43.708Z,3.44
2018-09-30T04:15:43.698Z,3.45
2018-09-30T04:16:43.725Z,3.41
2018-09-30T04:17:43.713Z,3.37
2018-09-30T04:18:43.613Z,3.26
2018-09-30T04:19:43.624Z,3.31
2018-09-30T04:20:43.550Z,3.26
2018-09-30T04:21:43.523Z,3.23
2018-09-30T04:22:43.499Z,3.31
2018-09-30T04:23:43.555Z,3.34
2018-09-30T04:24:43.434Z,3.35
2018-09-30T04:25:43.455Z,3.39
2018-09-30T04:26:43.392Z,3.34
2018-09-30T04:27:43.479Z,3.33
2018-09-30T04:28:43.391Z,3.25
2018-09-30T04:29:43.386Z,3.26
2018-09-30T04:30:43.280Z,3.28
2018-09-30T04:31:43.306Z,3.34
2018-09-30T04:32:43.219Z,3.34
2018-09-30T04:33:43.304Z,3.26
2018-09-30T04:34:43.190Z,3.26
2018-09-30T04:35:43.214Z,3.20
2018-09-30T04:36:43.115Z,3.31
2018-09-30T04:37:43.126Z,3.23
2018-09-30T04:38:43.069Z,3.15
2018-09-30T04:39:43.138Z,3.16
2018-09-30T04:40:43.002Z,3.23
2018-09-30T04:41:43.049Z,3.15
2018-09-30T04:42:42.958Z,3.16
2018-09-30T04:43:42.962Z,3.15
2018-09-30T04:44:42.913Z,3.20
2018-09-30T04:45:42.994Z,3.20
2018-09-30T04:46:42.846Z,3.16
2018-09-30T04:47:42.880Z,3.20
2018-09-30T04:48:42.783Z,3.23
2018-09-30T04:49:42.794Z,3.07
2018-09-30T04:50:42.731Z,3.16
2018-09-30T04:51:42.807Z,3.12
2018-09-30T04:52:42.686Z,3.10
2018-09-30T04:53:42.720Z,3.07
2018-09-30T04:54:42.628Z,3.04
2018-09-30T04:55:42.629Z,3.05
2018-09-30T04:56:42.610Z,2.99
2018-09-30T04:57:42.643Z,2.92
2018-09-30T04:58:42.522Z,3.12
2018-09-30T04:59:42.546Z,2.92
2018-09-30T05:00:42.459Z,2.99
2018-09-30T05:01:42.462Z,2.94
2018-09-30T05:02:42.409Z,2.84
2018-09-30T05:03:42.473Z,2.97
2018-09-30T05:04:42.360Z,3.01
2018-09-30T05:05:42.390Z,3.04
2018-09-30T05:06:42.284Z,2.98
2018-09-30T05:07:42.298Z,2.94
2018-09-30T05:08:42.242Z,2.90
2018-09-30T05:09:42.315Z,3.01
2018-09-30T05:10:42.191Z,2.92
2018-09-30T05:11:42.224Z,2.94
2018-09-30T05:12:42.130Z,3.02
2018-09-30T05:13:42.146Z,2.94
2018-09-30T05:14:42.077Z,2.94
2018-09-30T05:15:42.149Z,2.86
2018-09-30T05:16:42.009Z,2.89
2018-09-30T05:17:42.051Z,2.97
2018-09-30T05:18:41.960Z,2.89
2018-09-30T05:19:41.978Z,2.94
2018-09-30T05:20:41.902Z,2.95
2018-09-30T05:21:41.981Z,2.87
2018-09-30T05:22:41.843Z,2.87
2018-09-30T05:23:41.893Z,2.77
2018-09-30T05:24:41.792Z,2.87
2018-09-30T05:25:42.845Z,2.80
2018-09-30T05:26:41.737Z,2.73
2018-09-30T05:27:41.825Z,2.71
2018-09-30T05:28:41.677Z,2.83
2018-09-30T05:29:41.724Z,2.66
2018-09-30T05:30:41.630Z,2.77
2018-09-30T05:31:41.631Z,2.89
2018-09-30T05:32:41.569Z,2.68
2018-09-30T05:33:41.647Z,2.79
2018-09-30T05:34:41.523Z,2.77
2018-09-30T05:35:41.561Z,2.83
2018-09-30T05:36:41.473Z,2.86
2018-09-30T05:37:41.462Z,2.73
2018-09-30T05:38:41.535Z,2.71
2018-09-30T05:39:41.371Z,2.86
2018-09-30T05:40:41.456Z,2.86
2018-09-30T05:41:41.328Z,2.79
2018-09-30T05:42:41.459Z,2.87
2018-09-30T05:43:41.268Z,2.84
2018-09-30T05:44:41.362Z,2.81
2018-09-30T05:45:41.213Z,2.86
2018-09-30T05:46:41.286Z,2.92
2018-09-30T05:47:41.165Z,2.92
2018-09-30T05:48:41.300Z,2.92
2018-09-30T05:49:41.096Z,2.89
2018-09-30T05:50:41.215Z,2.90
2018-09-30T05:51:41.046Z,2.92
2018-09-30T05:52:41.126Z,2.99
2018-09-30T05:53:40.990Z,2.99
2018-09-30T05:54:41.141Z,3.10
2018-09-30T05:55:40.937Z,3.04
2018-09-30T05:56:40.907Z,3.02
2018-09-30T05:57:40.941Z,3.08
2018-09-30T05:58:40.956Z,3.10
2018-09-30T05:59:40.823Z,3.05
2018-09-30T06:00:40.969Z,3.01
2018-09-30T06:01:40.760Z,2.98
2018-09-30T06:02:40.882Z,3.05
2018-09-30T06:03:40.712Z,3.02
2018-09-30T06:04:40.793Z,2.99
2018-09-30T06:05:40.656Z,3.04
2018-09-30T06:06:40.812Z,3.02
2018-09-30T06:07:40.595Z,2.99
2018-09-30T06:08:40.723Z,2.98
2018-09-30T06:09:40.545Z,3.10
2018-09-30T06:10:40.629Z,3.04
2018-09-30T06:11:40.498Z,3.05
2018-09-30T06:12:40.659Z,2.99
2018-09-30T06:13:40.501Z,3.17
2018-09-30T06:14:40.554Z,3.33
2018-09-30T06:15:40.384Z,3.26
2018-09-30T06:16:40.463Z,3.31
2018-09-30T06:17:40.318Z,3.34
2018-09-30T06:18:40.472Z,3.31
2018-09-30T06:19:40.261Z,3.33
2018-09-30T06:20:40.389Z,3.39
2018-09-30T06:21:40.330Z,3.33
2018-09-30T06:22:40.188Z,3.41
2018-09-30T06:23:40.197Z,3.49
2018-09-30T06:24:40.124Z,3.46
2018-09-30T06:25:40.125Z,3.50
2018-09-30T06:26:40.064Z,3.42
2018-09-30T06:27:40.127Z,3.50
2018-09-30T06:28:40.021Z,3.53
2018-09-30T06:29:39.991Z,3.56
2018-09-30T06:30:40.051Z,3.56
2018-09-30T06:31:39.954Z,3.56
2018-09-30T06:32:39.937Z,3.62
2018-09-30T06:33:39.881Z,3.71
2018-09-30T06:34:39.847Z,3.62
2018-09-30T06:35:39.820Z,3.68
2018-09-30T06:36:39.795Z,3.75
2018-09-30T06:37:39.771Z,3.71
2018-09-30T06:38:39.767Z,3.80
2018-09-30T06:39:39.711Z,3.86
2018-09-30T06:40:39.708Z,3.70
2018-09-30T06:41:39.654Z,3.81
2018-09-30T06:42:39.731Z,3.75
2018-09-30T06:43:39.621Z,3.81
2018-09-30T06:44:39.579Z,3.90
2018-09-30T06:45:39.645Z,3.89
2018-09-30T06:46:39.524Z,3.82
2018-09-30T06:47:39.500Z,3.96
2018-09-30T06:48:39.471Z,4.07
2018-09-30T06:49:39.434Z,4.07
2018-09-30T06:50:39.460Z,4.11
2018-09-30T06:51:39.391Z,4.11
2018-09-30T06:52:39.354Z,4.13
2018-09-30T06:53:39.327Z,4.18
2018-09-30T06:54:39.389Z,4.26
2018-09-30T06:55:39.270Z,4.18
2018-09-30T06:56:39.324Z,4.29
2018-09-30T06:57:39.224Z,4.28
2018-09-30T06:58:39.188Z,4.25
2018-09-30T06:59:39.234Z,4.49
2018-09-30T07:00:39.137Z,4.44
2018-09-30T07:01:39.134Z,4.35
2018-09-30T07:02:39.081Z,4.47
2018-09-30T07:03:39.147Z,4.47
2018-09-30T07:04:39.020Z,4.44
2018-09-30T07:05:38.995Z,4.54
2018-09-30T07:06:38.975Z,4.59
2018-09-30T07:07:38.968Z,4.62
2018-09-30T07:08:38.920Z,4.71
2018-09-30T07:09:39.044Z,4.71
2018-09-30T07:10:38.905Z,4.77
2018-09-30T07:11:38.911Z,4.87
2018-09-30T07:12:38.795Z,4.88
2018-09-30T07:13:38.816Z,5.05
2018-09-30T07:14:38.751Z,5.12
2018-09-30T07:15:38.876Z,5.29
2018-09-30T07:16:38.696Z,5.30
2018-09-30T07:17:38.727Z,5.44
2018-09-30T07:18:38.637Z,5.42
2018-09-30T07:19:38.743Z,5.44
2018-09-30T07:20:38.573Z,5.59
2018-09-30T07:21:38.758Z,5.63
2018-09-30T07:22:38.577Z,5.58
2018-09-30T07:23:38.669Z,5.75
2018-09-30T07:24:38.468Z,5.70
2018-09-30T07:25:38.476Z,5.77
2018-09-30T07:26:38.418Z,5.88
2018-09-30T07:27:38.492Z,5.77
2018-09-30T07:28:38.354Z,5.88
2018-09-30T07:29:38.403Z,5.88
2018-09-30T07:30:38.303Z,5.92
2018-09-30T07:31:38.270Z,5.88
2018-09-30T07:32:39.348Z,5.99
2018-09-30T07:33:38.229Z,6.01
2018-09-30T07:34:38.233Z,6.01
2018-09-30T07:35:38.167Z,6.08
2018-09-30T07:36:39.167Z,6.13
2018-09-30T07:37:38.103Z,6.21
2018-09-30T07:38:38.083Z,6.25
2018-09-30T07:39:38.071Z,6.39
2018-09-30T07:40:38.027Z,6.40
2018-09-30T07:41:38.081Z,6.48
2018-09-30T07:42:37.968Z,6.60
2018-09-30T07:43:37.992Z,6.50
2018-09-30T07:44:37.909Z,6.60
2018-09-30T07:45:37.885Z,6.78
2018-09-30T07:46:37.866Z,6.72
2018-09-30T07:47:37.915Z,6.82
2018-09-30T07:48:37.792Z,6.86
2018-09-30T07:49:37.823Z,6.87
2018-09-30T07:50:37.751Z,6.89
2018-09-30T07:51:37.735Z,6.99
2018-09-30T07:52:37.742Z,7.08
2018-09-30T07:53:37.749Z,7.09
2018-09-30T07:54:37.628Z,7.19
2018-09-30T07:55:37.657Z,7.26
2018-09-30T07:56:37.577Z,7.37
2018-09-30T07:57:37.584Z,7.44
2018-09-30T07:58:37.526Z,7.54
2018-09-30T07:59:37.594Z,7.58
2018-09-30T08:00:37.457Z,7.62
2018-09-30T08:01:49.472Z,7.70
2018-09-30T08:02:37.401Z,7.67
2018-09-30T08:03:37.426Z,7.79
2018-09-30T08:04:37.353Z,7.85
2018-09-30T08:05:38.449Z,7.91
2018-09-30T08:06:37.292Z,8.00
2018-09-30T08:07:37.335Z,8.06
2018-09-30T08:08:37.239Z,8.22
2018-09-30T08:09:37.257Z,8.34
2018-09-30T08:10:37.191Z,8.42
2018-09-30T08:11:37.141Z,8.55
2018-09-30T08:12:37.166Z,8.71
2018-09-30T08:13:37.091Z,8.70
2018-09-30T08:14:37.205Z,8.86
2018-09-30T08:15:37.025Z,8.88
2018-09-30T08:16:37.141Z,9.01
2018-09-30T08:17:37.003Z,9.00
2018-09-30T08:18:38.018Z,9.15
2018-09-30T08:19:36.926Z,9.23
2018-09-30T08:20:37.907Z,9.27
2018-09-30T08:21:36.873Z,9.24
2018-09-30T08:22:36.926Z,9.30
2018-09-30T08:23:36.816Z,9.26
2018-09-30T08:24:38.957Z,9.44
2018-09-30T08:25:36.802Z,9.35
2018-09-30T08:26:37.741Z,9.53
2018-09-30T08:27:36.714Z,9.55
2018-09-30T08:28:37.785Z,9.63
2018-09-30T08:29:36.643Z,9.73
2018-09-30T08:30:37.688Z,9.73
2018-09-30T08:31:36.596Z,9.86
2018-09-30T08:32:36.584Z,9.85
2018-09-30T08:33:36.538Z,9.96
2018-09-30T08:34:36.621Z,10.11
2018-09-30T08:35:36.472Z,10.17
2018-09-30T08:36:36.447Z,10.22
2018-09-30T08:37:36.425Z,10.14
2018-09-30T08:38:36.420Z,10.24
2018-09-30T08:39:36.496Z,10.31
2018-09-30T08:40:36.334Z,10.35
2018-09-30T08:41:36.307Z,10.39
2018-09-30T08:42:36.343Z,10.44
2018-09-30T08:43:36.275Z,10.55
2018-09-30T08:44:36.282Z,10.51
2018-09-30T08:45:36.266Z,10.62
2018-09-30T08:46:38.200Z,10.54
2018-09-30T08:47:36.218Z,10.66
2018-09-30T08:48:38.231Z,10.70
2018-09-30T08:49:36.092Z,10.65
2018-09-30T08:50:38.067Z,10.73
2018-09-30T08:51:36.034Z,10.78
2018-09-30T08:52:36.105Z,10.83
2018-09-30T08:53:35.984Z,10.80
2018-09-30T08:54:38.063Z,10.90
2018-09-30T08:55:36.222Z,10.93
2018-09-30T08:56:38.011Z,10.94
2018-09-30T08:57:35.867Z,10.91
2018-09-30T08:58:35.939Z,11.11
2018-09-30T08:59:35.810Z,11.19
2018-09-30T09:00:35.857Z,11.30
2018-09-30T09:01:35.758Z,11.41
2018-09-30T09:02:35.760Z,11.54
2018-09-30T09:03:35.701Z,11.57
2018-09-30T09:04:35.772Z,11.54
2018-09-30T09:05:35.642Z,11.67
2018-09-30T09:06:36.718Z,11.77
2018-09-30T09:07:35.592Z,11.79
2018-09-30T09:08:35.594Z,11.75
2018-09-30T09:09:35.532Z,11.78
2018-09-30T09:10:36.534Z,11.88
2018-09-30T09:11:35.477Z,11.88
2018-09-30T09:12:36.559Z,11.88
2018-09-30T09:13:35.431Z,11.93
2018-09-30T09:14:35.446Z,11.97
2018-09-30T09:15:35.456Z,12.04
2018-09-30T09:16:35.436Z,12.08
2018-09-30T09:17:35.321Z,11.97
2018-09-30T09:18:35.344Z,12.04
2018-09-30T09:19:35.258Z,12.00
2018-09-30T09:20:35.224Z,12.11
2018-09-30T09:21:35.269Z,12.03
2018-09-30T09:22:35.234Z,11.97
2018-09-30T09:23:35.270Z,12.07
2018-09-30T09:24:35.122Z,12.19
2018-09-30T09:25:35.200Z,12.19
2018-09-30T09:26:35.060Z,12.31
2018-09-30T09:27:35.049Z,12.48
2018-09-30T09:28:35.244Z,12.66
2018-09-30T09:29:34.984Z,12.84
2018-09-30T09:30:35.024Z,12.79
2018-09-30T09:31:34.983Z,12.79
2018-09-30T09:32:35.028Z,12.76
2018-09-30T09:33:34.874Z,12.84
2018-09-30T09:34:34.945Z,12.95
2018-09-30T09:35:34.825Z,13.04
2018-09-30T09:36:34.855Z,13.03
2018-09-30T09:37:34.761Z,13.04
2018-09-30T09:38:34.910Z,13.10
2018-09-30T09:39:34.723Z,13.07
2018-09-30T09:40:34.773Z,13.10
2018-09-30T09:41:34.662Z,13.19
2018-09-30T09:42:34.699Z,13.29
2018-09-30T09:43:34.607Z,13.41
2018-09-30T09:44:34.705Z,13.41
2018-09-30T09:45:34.557Z,13.25
2018-09-30T09:46:34.622Z,13.36
2018-09-30T09:47:34.494Z,13.32
2018-09-30T09:48:34.529Z,13.48
2018-09-30T09:49:34.439Z,13.69
2018-09-30T09:50:34.545Z,13.76
2018-09-30T09:51:34.435Z,13.99
2018-09-30T09:52:34.508Z,14.04
2018-09-30T09:53:34.330Z,14.06
2018-09-30T09:54:34.481Z,14.01
2018-09-30T09:55:34.282Z,13.99
2018-09-30T09:56:34.444Z,14.08
2018-09-30T09:57:34.231Z,14.08
2018-09-30T09:58:34.314Z,14.11
2018-09-30T09:59:34.181Z,14.41
2018-09-30T10:00:34.455Z,14.38
2018-09-30T10:01:34.117Z,14.54
2018-09-30T10:02:34.270Z,14.59
2018-09-30T10:03:34.079Z,14.54
2018-09-30T10:04:34.185Z,14.56
2018-09-30T10:05:34.004Z,14.45
2018-09-30T10:06:33.988Z,14.48
2018-09-30T10:07:35.125Z,14.39
2018-09-30T10:08:33.937Z,14.30
2018-09-30T10:09:34.109Z,14.26
2018-09-30T10:10:33.874Z,14.17
2018-09-30T10:11:34.022Z,14.16
2018-09-30T10:12:33.853Z,14.27
2018-09-30T10:13:33.830Z,14.34
2018-09-30T10:14:33.774Z,14.36
2018-09-30T10:15:33.786Z,14.48
2018-09-30T10:16:33.718Z,14.56
2018-09-30T10:17:33.686Z,14.54
2018-09-30T10:18:33.659Z,14.66
2018-09-30T10:19:33.699Z,14.66
2018-09-30T10:20:33.618Z,14.82
2018-09-30T10:21:33.578Z,14.91
2018-09-30T10:22:33.561Z,15.03
2018-09-30T10:23:33.532Z,14.94
2018-09-30T10:24:33.494Z,14.91
2018-09-30T10:25:33.477Z,14.97
2018-09-30T10:26:33.448Z,15.04
2018-09-30T10:27:33.422Z,15.01
2018-09-30T10:28:33.407Z,15.19
2018-09-30T10:29:33.378Z,15.30
2018-09-30T10:30:33.339Z,15.40
2018-09-30T10:31:33.304Z,15.38
2018-09-30T10:32:33.279Z,15.53
2018-09-30T10:33:33.262Z,15.48
2018-09-30T10:34:33.229Z,15.40
2018-09-30T10:35:33.204Z,15.31
2018-09-30T10:36:33.175Z,15.28
2018-09-30T10:37:33.147Z,15.37
2018-09-30T10:38:33.203Z,15.38
2018-09-30T10:39:33.102Z,15.33
2018-09-30T10:40:33.068Z,15.30
2018-09-30T10:41:33.048Z,15.38
2018-09-30T10:42:33.022Z,15.46
2018-09-30T10:43:32.999Z,15.43
2018-09-30T10:44:32.966Z,15.51
2018-09-30T10:45:32.940Z,15.52
2018-09-30T10:46:32.923Z,15.53
2018-09-30T10:47:32.889Z,15.59
2018-09-30T10:48:33.031Z,15.62
2018-09-30T10:49:32.861Z,15.84
2018-09-30T10:50:32.828Z,15.88
2018-09-30T10:51:32.773Z,16.01
2018-09-30T10:52:32.750Z,16.01
2018-09-30T10:53:32.717Z,16.08
2018-09-30T10:54:32.694Z,16.08
2018-09-30T10:55:32.672Z,16.17
2018-09-30T10:56:32.652Z,16.23
2018-09-30T10:57:32.618Z,16.11
2018-09-30T10:58:33.681Z,16.07
2018-09-30T10:59:32.565Z,16.16
2018-09-30T11:00:32.623Z,16.13
2018-09-30T11:01:32.521Z,16.17
2018-09-30T11:02:32.504Z,16.36
2018-09-30T11:03:32.466Z,16.36
2018-09-30T11:04:32.426Z,16.36
2018-09-30T11:05:32.395Z,16.44
2018-09-30T11:06:32.396Z,16.48
2018-09-30T11:07:32.346Z,16.44
2018-09-30T11:08:32.319Z,16.50
2018-09-30T11:09:32.302Z,16.51
2018-09-30T11:10:32.279Z,16.66
2018-09-30T11:11:32.255Z,16.57
2018-09-30T11:12:32.221Z,16.44
2018-09-30T11:13:32.185Z,16.36
2018-09-30T11:14:32.169Z,16.25
2018-09-30T11:15:32.138Z,16.25
2018-09-30T11:16:32.114Z,16.26
2018-09-30T11:17:32.149Z,16.33
2018-09-30T11:18:32.048Z,16.32
2018-09-30T11:19:32.032Z,16.08
2018-09-30T11:20:32.011Z,16.16
2018-09-30T11:21:31.986Z,16.07
2018-09-30T11:22:32.009Z,15.88
2018-09-30T11:23:31.927Z,15.89
2018-09-30T11:24:31.903Z,16.01
2018-09-30T11:25:31.868Z,16.04
2018-09-30T11:26:31.860Z,16.06
2018-09-30T11:27:31.815Z,16.07
2018-09-30T11:28:31.798Z,15.99
2018-09-30T11:29:31.773Z,15.96
2018-09-30T11:30:31.741Z,16.03
2018-09-30T11:31:31.739Z,16.10
2018-09-30T11:32:32.709Z,16.25
2018-09-30T11:33:31.882Z,16.26
2018-09-30T11:34:32.998Z,16.33
2018-09-30T11:35:31.636Z,16.33
2018-09-30T11:36:33.606Z,16.50
2018-09-30T11:37:31.661Z,16.52
2018-09-30T11:38:31.542Z,16.52
2018-09-30T11:39:31.502Z,16.63
2018-09-30T11:40:32.709Z,16.65
2018-09-30T11:41:31.495Z,16.73
2018-09-30T11:42:31.447Z,17.05
2018-09-30T11:43:31.408Z,17.28
2018-09-30T11:44:32.412Z,17.33
2018-09-30T11:45:31.356Z,17.32
2018-09-30T11:46:32.428Z,17.20
2018-09-30T11:47:31.297Z,17.18
2018-09-30T11:48:31.432Z,17.20
2018-09-30T11:49:31.250Z,17.05
2018-09-30T11:50:42.999Z,17.10
2018-09-30T11:51:31.195Z,17.24
2018-09-30T11:52:33.346Z,17.42
2018-09-30T11:53:31.155Z,17.54
2018-09-30T11:54:32.179Z,17.71
2018-09-30T11:55:31.108Z,17.66
2018-09-30T11:56:31.158Z,17.77
2018-09-30T11:57:31.041Z,17.80
2018-09-30T11:58:32.097Z,17.89
2018-09-30T11:59:30.980Z,17.60
2018-09-30T12:00:31.004Z,17.42
2018-09-30T12:01:30.946Z,17.35
2018-09-30T12:02:31.929Z,17.46
2018-09-30T12:03:30.888Z,17.55
2018-09-30T12:04:30.959Z,17.77
2018-09-30T12:05:30.840Z,17.79
2018-09-30T12:06:30.837Z,17.94
2018-09-30T12:07:30.778Z,17.99
2018-09-30T12:08:31.866Z,17.84
2018-09-30T12:09:30.739Z,17.98
2018-09-30T12:10:30.753Z,18.14
2018-09-30T12:11:30.701Z,18.13
2018-09-30T12:12:30.767Z,18.16
2018-09-30T12:13:30.630Z,18.21
2018-09-30T12:14:30.688Z,18.35
2018-09-30T12:15:30.578Z,18.36
2018-09-30T12:16:35.495Z,18.36
2018-09-30T12:17:30.523Z,18.16
2018-09-30T12:18:32.545Z,18.16
2018-09-30T12:19:30.474Z,18.11
2018-09-30T12:20:31.532Z,18.10
2018-09-30T12:21:30.424Z,18.20
2018-09-30T12:22:30.420Z,18.16
2018-09-30T12:23:30.381Z,18.19
2018-09-30T12:24:30.467Z,18.16
2018-09-30T12:25:30.327Z,18.26
2018-09-30T12:26:30.338Z,18.29
2018-09-30T12:27:30.274Z,18.26
2018-09-30T12:28:30.357Z,18.16
2018-09-30T12:29:30.236Z,18.23
2018-09-30T12:30:37.026Z,18.14
2018-09-30T12:31:30.177Z,18.16
2018-09-30T12:32:30.177Z,18.31
2018-09-30T12:33:30.132Z,18.34
2018-09-30T12:34:32.134Z,18.57
2018-09-30T12:35:30.078Z,18.59
2018-09-30T12:36:30.105Z,18.72
2018-09-30T12:37:30.016Z,18.56
2018-09-30T12:38:30.026Z,18.47
2018-09-30T12:39:29.970Z,18.49
2018-09-30T12:40:30.053Z,18.44
2018-09-30T12:41:29.936Z,18.56
2018-09-30T12:42:29.956Z,18.57
2018-09-30T12:43:29.868Z,18.59
2018-09-30T12:44:29.962Z,18.68
2018-09-30T12:45:29.823Z,18.65
2018-09-30T12:46:30.887Z,18.71
2018-09-30T12:47:29.783Z,18.78
2018-09-30T12:48:29.776Z,18.82
2018-09-30T12:49:29.721Z,18.86
2018-09-30T12:50:29.727Z,18.99
2018-09-30T12:51:29.676Z,18.86
2018-09-30T12:52:29.635Z,18.72
2018-09-30T12:53:29.651Z,18.74
2018-09-30T12:54:29.602Z,18.69
2018-09-30T12:55:29.565Z,18.69
2018-09-30T12:56:29.552Z,18.84
2018-09-30T12:57:29.535Z,18.89
2018-09-30T12:58:29.493Z,18.89
2018-09-30T12:59:29.457Z,18.82
2018-09-30T13:00:29.446Z,18.59
2018-09-30T13:01:29.447Z,18.46
2018-09-30T13:02:29.390Z,18.47
2018-09-30T13:03:29.464Z,18.39
2018-09-30T13:04:29.336Z,18.34
2018-09-30T13:05:29.370Z,18.35
2018-09-30T13:06:29.302Z,18.49
2018-09-30T13:07:29.284Z,18.66
2018-09-30T13:08:29.243Z,18.75
2018-09-30T13:09:29.295Z,18.83